Time;durP1;ratioP1;P1;durP2;ratioP2;P2;SDS_P1;SDS_P2;PMS_P1;PMS_P2;Temp;Humidity;BMP_temperature;BMP_pressure;BME280_temperature;BME280_humidity;BME280_pressure;Samples;Min_cycle;Max_cycle;Signal;HPM_P1;HPM_P2
2024/02/09 00:03:01;;;;;;;11.70;8.13;;;;;;;3.43;100.00;97956.53;10436403;28;20942;-79
2024/02/09 00:08:05;;;;;;;12.15;7.97;;;;;;;3.50;100.00;97949.69;10439079;28;20038;-83
2024/02/09 00:13:12;;;;;;;11.50;7.68;;;;;;;3.52;100.00;97944.25;10443223;28;20048;-82
2024/02/09 00:18:18;;;;;;;8.98;6.50;;;;;;;3.58;100.00;97935.72;10429550;28;20072;-81
2024/02/09 00:23:21;;;;;;;9.32;6.70;;;;;;;3.62;100.00;97929.16;10432087;28;20052;-80
2024/02/09 00:28:25;;;;;;;10.95;7.85;;;;;;;3.65;100.00;97920.94;10418326;28;20052;-81
2024/02/09 00:33:29;;;;;;;10.68;7.72;;;;;;;3.69;100.00;97922.31;10417264;28;20075;-81
2024/02/09 00:38:37;;;;;;;14.00;9.77;;;;;;;3.74;100.00;97912.09;10436152;28;20512;-80
2024/02/09 00:43:40;;;;;;;11.25;7.47;;;;;;;3.79;100.00;97901.91;10418651;28;20792;-81
2024/02/09 00:48:45;;;;;;;11.45;6.78;;;;;;;3.84;100.00;97894.34;10409938;28;20045;-81
2024/02/09 00:53:50;;;;;;;11.35;7.93;;;;;;;3.86;100.00;97881.75;10404223;28;20049;-81
2024/02/09 00:58:54;;;;;;;10.93;7.63;;;;;;;3.91;100.00;97879.50;10410378;28;20056;-80
2024/02/09 01:03:58;;;;;;;16.23;7.05;;;;;;;3.95;100.00;97866.81;10404639;28;20053;-81
2024/02/09 01:09:05;;;;;;;12.40;7.80;;;;;;;3.99;100.00;97862.84;10404910;28;20450;-80
2024/02/09 02:45:13;;;;;;;16.48;8.55;;;;;;;5.66;100.00;97731.28;10476121;28;20044;-82
2024/02/09 03:06:19;;;;;;;19.60;10.32;;;;;;;5.82;100.00;97696.72;10445423;28;20060;-79
2024/02/09 03:11:23;;;;;;;18.25;9.00;;;;;;;5.88;100.00;97680.09;10456352;28;20051;-80
2024/02/09 03:16:27;;;;;;;17.08;8.82;;;;;;;5.93;100.00;97679.63;10431593;28;20057;-82
2024/02/09 03:21:35;;;;;;;43.53;9.32;;;;;;;5.83;100.00;97679.75;10425342;28;20675;-82
2024/02/09 03:26:39;;;;;;;23.63;9.70;;;;;;;5.76;100.00;97668.06;10375142;28;1936873;-82
2024/02/09 03:31:43;;;;;;;21.70;8.38;;;;;;;5.80;100.00;97671.25;10441826;28;20506;-83
2024/02/09 03:36:46;;;;;;;22.13;9.20;;;;;;;5.84;100.00;97665.44;10465852;28;20052;-80
2024/02/09 03:41:51;;;;;;;19.88;9.48;;;;;;;5.84;100.00;97644.13;10486430;28;20530;-81
2024/02/09 03:46:54;;;;;;;25.02;10.07;;;;;;;5.84;100.00;97641.47;10457901;28;20053;-81
2024/02/09 03:51:57;;;;;;;21.70;9.43;;;;;;;5.83;100.00;97636.28;10464105;28;20421;-82
2024/02/09 03:57:02;;;;;;;20.33;10.68;;;;;;;5.86;100.00;97642.13;10470462;28;20045;-82
2024/02/09 04:02:06;;;;;;;17.58;8.63;;;;;;;5.88;100.00;97644.63;10453189;28;20081;-81
2024/02/09 04:07:10;;;;;;;21.27;9.38;;;;;;;5.95;100.00;97627.00;10455395;28;20048;-82
2024/02/09 04:12:15;;;;;;;21.83;8.70;;;;;;;5.98;100.00;97625.84;10456525;28;20052;-81
2024/02/09 04:17:18;;;;;;;18.98;9.10;;;;;;;6.03;100.00;97612.88;10454357;28;20054;-80
2024/02/09 04:22:21;;;;;;;17.58;9.10;;;;;;;6.02;100.00;97609.38;10454041;28;20049;-82
2024/02/09 04:27:25;;;;;;;16.55;8.23;;;;;;;6.14;100.00;97602.75;10462013;28;20118;-81
2024/02/09 04:32:29;;;;;;;19.95;8.63;;;;;;;6.16;100.00;97599.91;10444588;28;20060;-82
2024/02/09 04:37:32;;;;;;;19.08;9.02;;;;;;;6.14;100.00;97607.22;10443092;28;20831;-81
2024/02/09 04:42:37;;;;;;;16.52;8.75;;;;;;;6.18;100.00;97600.59;10452770;28;20080;-82
2024/02/09 04:47:40;;;;;;;21.50;8.90;;;;;;;6.17;100.00;97601.56;10407254;28;20054;-81
2024/02/09 04:52:43;;;;;;;19.30;8.63;;;;;;;6.20;100.00;97598.59;10425244;28;20068;-82
2024/02/09 04:57:47;;;;;;;21.75;9.57;;;;;;;6.29;100.00;97588.78;10411584;28;20064;-81
2024/02/09 05:02:51;;;;;;;22.83;9.55;;;;;;;6.41;100.00;97574.09;10399573;28;20080;-80
2024/02/09 05:07:54;;;;;;;22.05;10.05;;;;;;;6.49;100.00;97575.94;10401431;28;20076;-81
2024/02/09 05:13:02;;;;;;;19.02;9.68;;;;;;;6.52;100.00;97563.09;10408408;28;20053;-81
2024/02/09 05:18:06;;;;;;;25.90;9.75;;;;;;;6.54;100.00;97558.44;10396491;28;20065;-78
2024/02/09 05:23:09;;;;;;;25.13;9.00;;;;;;;6.59;100.00;97561.44;10430742;28;21182;-80
2024/02/09 05:28:13;;;;;;;15.50;7.85;;;;;;;6.70;100.00;97562.13;10412278;28;20652;-82
2024/02/09 05:33:17;;;;;;;13.75;6.55;;;;;;;6.79;100.00;97553.91;10398640;28;20065;-80
2024/02/09 05:38:20;;;;;;;13.52;5.70;;;;;;;7.20;100.00;97548.50;10413086;28;20059;-82
2024/02/09 05:43:24;;;;;;;11.00;4.00;;;;;;;7.47;100.00;97549.09;10408357;28;20618;-81
2024/02/09 05:48:27;;;;;;;11.10;4.75;;;;;;;7.60;100.00;97551.22;10377978;28;20554;-81
2024/02/09 05:53:30;;;;;;;12.82;5.22;;;;;;;7.69;100.00;97550.16;10378527;28;20064;-81
2024/02/09 05:58:34;;;;;;;11.73;4.95;;;;;;;7.65;100.00;97535.47;10381010;28;20065;-80
2024/02/09 06:03:38;;;;;;;9.25;4.30;;;;;;;7.72;100.00;97547.13;10377099;28;20059;-80
2024/02/09 06:08:43;;;;;;;8.93;4.60;;;;;;;7.79;100.00;97529.41;10392973;28;20041;-79
2024/02/09 06:13:47;;;;;;;9.73;4.45;;;;;;;7.76;100.00;97528.91;10395528;28;20389;-80
2024/02/09 06:18:51;;;;;;;13.95;4.65;;;;;;;7.78;100.00;97526.88;10407402;28;20746;-81
2024/02/09 06:23:56;;;;;;;12.35;3.80;;;;;;;7.72;100.00;97531.09;10414622;28;20060;-81
2024/02/09 06:29:00;;;;;;;9.15;3.92;;;;;;;7.69;100.00;97532.28;10387771;28;20064;-80
2024/02/09 06:34:03;;;;;;;9.05;4.07;;;;;;;7.69;100.00;97528.78;10395109;28;20045;-81
2024/02/09 06:39:08;;;;;;;5.32;2.78;;;;;;;7.68;100.00;97529.81;10419070;28;20056;-81
2024/02/09 06:44:13;;;;;;;8.75;3.80;;;;;;;7.72;100.00;97534.59;10425714;28;20045;-81
2024/02/09 06:49:16;;;;;;;8.05;4.20;;;;;;;7.82;100.00;97533.56;10427056;28;20053;-81
2024/02/09 06:54:19;;;;;;;8.52;3.85;;;;;;;7.86;100.00;97548.22;10430619;28;20044;-79
2024/02/09 06:59:23;;;;;;;5.82;2.88;;;;;;;7.85;100.00;97546.56;10433004;28;20057;-82
2024/02/09 07:04:27;;;;;;;11.88;3.78;;;;;;;7.90;100.00;97545.03;10425554;28;20057;-81
2024/02/09 07:09:30;;;;;;;5.78;3.15;;;;;;;7.84;100.00;97550.22;10420092;28;20080;-81
2024/02/09 07:14:37;;;;;;;10.23;3.63;;;;;;;7.85;100.00;97547.41;10429181;28;21199;-80
2024/02/09 07:19:40;;;;;;;8.68;3.00;;;;;;;7.78;100.00;97545.59;10461999;28;20062;-80
2024/02/09 07:24:43;;;;;;;6.35;2.58;;;;;;;7.81;100.00;97540.72;10466053;28;20045;-81
2024/02/09 07:29:48;;;;;;;4.75;2.72;;;;;;;7.87;100.00;97547.19;10462865;28;21279;-81
2024/02/09 07:34:52;;;;;;;6.82;2.80;;;;;;;7.91;100.00;97548.53;10453727;28;20044;-81
2024/02/09 07:39:55;;;;;;;3.58;2.20;;;;;;;7.93;100.00;97544.69;10417507;28;20069;-80
2024/02/09 07:45:00;;;;;;;4.40;2.25;;;;;;;7.99;100.00;97543.13;10419839;28;20072;-80
2024/02/09 07:50:07;;;;;;;13.52;2.90;;;;;;;8.03;100.00;97541.75;10416752;28;20053;-82
2024/02/09 07:55:13;;;;;;;6.60;2.65;;;;;;;8.09;100.00;97545.56;10457129;28;20045;-81
2024/02/09 08:00:20;;;;;;;5.00;1.65;;;;;;;8.16;100.00;97536.66;10481911;28;20079;-82
2024/02/09 08:05:24;;;;;;;3.13;1.85;;;;;;;8.20;100.00;97526.47;10455646;28;21222;-81
2024/02/09 08:10:27;;;;;;;6.97;2.17;;;;;;;8.26;100.00;97520.38;10466525;28;20136;-80
2024/02/09 08:15:32;;;;;;;3.58;1.75;;;;;;;8.45;100.00;97520.88;10454303;28;20048;-79
2024/02/09 08:20:36;;;;;;;3.70;1.73;;;;;;;8.43;100.00;97529.09;10456747;28;20052;-79
2024/02/09 08:25:40;;;;;;;3.30;1.67;;;;;;;8.44;100.00;97528.09;10460742;28;20040;-79
2024/02/09 08:30:44;;;;;;;3.58;1.60;;;;;;;8.54;100.00;97515.31;10445548;28;20048;-79
2024/02/09 08:35:49;;;;;;;5.13;1.65;;;;;;;8.52;100.00;97525.38;10452575;28;20055;-78
2024/02/09 08:40:52;;;;;;;2.40;1.98;;;;;;;8.55;100.00;97518.81;10462238;28;20052;-79
2024/02/09 08:45:57;;;;;;;4.35;1.10;;;;;;;8.58;100.00;97524.66;10452597;28;20049;-78
2024/02/09 08:51:00;;;;;;;4.60;1.17;;;;;;;8.69;100.00;97526.03;10464348;28;20170;-78
2024/02/09 08:56:03;;;;;;;3.38;1.33;;;;;;;8.68;100.00;97510.19;10457045;28;20055;-80
2024/02/09 09:01:08;;;;;;;2.67;1.23;;;;;;;8.65;100.00;97518.59;10446930;28;21375;-79
2024/02/09 09:06:12;;;;;;;3.40;1.38;;;;;;;8.80;100.00;97512.25;10482239;28;20045;-77
2024/02/09 09:11:17;;;;;;;2.53;1.33;;;;;;;8.84;100.00;97510.03;10463298;28;20052;-78
2024/02/09 09:16:22;;;;;;;2.72;1.00;;;;;;;8.80;100.00;97516.75;10428520;28;20053;-81
2024/02/09 09:21:25;;;;;;;2.50;1.30;;;;;;;9.02;100.00;97515.88;10439238;28;20040;-79
2024/02/09 09:26:30;;;;;;;2.63;1.08;;;;;;;9.03;100.00;97504.13;10460498;28;20048;-78
2024/02/09 09:31:35;;;;;;;1.95;1.10;;;;;;;9.09;100.00;97513.28;10438301;28;20607;-77
2024/02/09 09:36:38;;;;;;;2.40;1.00;;;;;;;9.30;100.00;97504.50;10411436;28;20053;-80
2024/02/09 09:41:41;;;;;;;2.72;1.10;;;;;;;9.38;100.00;97509.75;10416690;28;20428;-79
2024/02/09 09:46:49;;;;;;;1.23;1.10;;;;;;;9.19;100.00;97521.88;10443195;28;20049;-79
2024/02/09 09:51:58;;;;;;;1.63;0.80;;;;;;;9.11;100.00;97521.94;10452013;28;20072;-79
2024/02/09 09:57:03;;;;;;;5.10;1.40;;;;;;;9.26;100.00;97528.13;10454641;28;20122;-78
2024/02/09 10:02:08;;;;;;;4.95;1.60;;;;;;;9.24;100.00;97535.53;10461352;28;20048;-78
2024/02/09 10:07:15;;;;;;;2.53;1.30;;;;;;;9.17;100.00;97537.28;10464728;28;20041;-79
2024/02/09 10:12:22;;;;;;;1.92;1.40;;;;;;;9.14;100.00;97540.31;10468390;28;20049;-79
2024/02/09 10:17:28;;;;;;;5.72;1.88;;;;;;;9.07;100.00;97536.72;10435809;28;20048;-78
2024/02/09 10:22:31;;;;;;;4.93;1.90;;;;;;;9.19;100.00;97529.06;10444630;28;20052;-78
2024/02/09 10:27:36;;;;;;;4.57;1.73;;;;;;;9.28;100.00;97530.63;10427941;28;20129;-78
2024/02/09 10:32:42;;;;;;;11.10;3.42;;;;;;;9.72;100.00;97516.34;10446098;28;20107;-79
2024/02/09 10:37:45;;;;;;;6.32;2.17;;;;;;;10.46;100.00;97523.31;10428351;28;20044;-78
2024/02/09 10:42:51;;;;;;;4.25;1.80;;;;;;;9.99;100.00;97528.22;10433291;28;20048;-78
2024/02/09 10:47:56;;;;;;;4.47;1.90;;;;;;;9.96;100.00;97527.78;10436233;28;20503;-78
2024/02/09 10:53:05;;;;;;;2.67;1.83;;;;;;;9.83;100.00;97521.19;10424365;28;20054;-78
2024/02/09 10:58:11;;;;;;;5.20;2.00;;;;;;;9.98;100.00;97523.03;10439237;28;20037;-78
2024/02/09 11:03:17;;;;;;;8.02;2.05;;;;;;;9.90;100.00;97518.63;10434469;28;20049;-80
2024/02/09 11:08:20;;;;;;;8.77;1.90;;;;;;;10.10;100.00;97513.47;10449782;28;20055;-81
2024/02/09 11:13:24;;;;;;;2.88;1.83;;;;;;;10.34;100.00;97517.63;10452646;28;20044;-80
2024/02/09 11:18:32;;;;;;;5.65;1.92;;;;;;;10.48;100.00;97500.63;10450098;28;20059;-79
2024/02/09 11:23:37;;;;;;;4.22;2.53;;;;;;;10.53;100.00;97508.94;10440692;28;20045;-79
2024/02/09 11:28:40;;;;;;;7.53;1.67;;;;;;;10.57;100.00;97512.88;10438562;28;20051;-79
2024/02/09 11:33:44;;;;;;;3.70;1.40;;;;;;;10.41;100.00;97504.25;10486212;28;20059;-79
2024/02/09 11:38:47;;;;;;;4.18;1.58;;;;;;;10.53;100.00;97502.69;10474372;28;20048;-79
2024/02/09 11:43:50;;;;;;;4.68;1.63;;;;;;;10.59;100.00;97504.63;10417529;28;20139;-79
2024/02/09 11:48:56;;;;;;;3.55;1.80;;;;;;;10.45;100.00;97494.78;10417218;28;20131;-79
2024/02/09 11:53:59;;;;;;;4.38;1.50;;;;;;;10.45;100.00;97490.28;10402661;28;20053;-77
2024/02/09 11:59:03;;;;;;;4.97;1.30;;;;;;;10.43;100.00;97496.88;10418557;28;20041;-78
2024/02/09 12:04:08;;;;;;;2.83;1.60;;;;;;;10.79;100.00;97500.22;10406037;28;20052;-80
2024/02/09 12:09:15;;;;;;;3.78;1.73;;;;;;;10.97;100.00;97502.44;10406805;28;20582;-81
2024/02/09 12:14:18;;;;;;;2.42;1.25;;;;;;;11.13;100.00;97503.97;10393449;28;20053;-81
2024/02/09 12:19:22;;;;;;;3.90;1.13;;;;;;;11.26;100.00;97512.13;10413257;28;20057;-81
2024/02/09 12:24:26;;;;;;;2.25;1.15;;;;;;;11.39;100.00;97510.53;10407702;28;20114;-81
2024/02/09 12:29:29;;;;;;;5.60;1.30;;;;;;;11.65;100.00;97507.94;10375906;28;20054;-80
2024/02/09 12:34:33;;;;;;;4.13;1.50;;;;;;;11.57;100.00;97516.19;10386257;28;21143;-80
2024/02/09 12:39:37;;;;;;;5.00;1.58;;;;;;;11.64;100.00;97516.22;10428046;28;20499;-80
2024/02/09 12:44:44;;;;;;;2.90;1.88;;;;;;;11.54;100.00;97505.84;10442683;28;20045;-80
2024/02/09 12:49:52;;;;;;;5.50;1.52;;;;;;;11.53;100.00;97555.25;10437457;28;20048;-82
2024/02/09 12:54:57;;;;;;;5.57;1.30;;;;;;;11.62;100.00;97504.84;10442713;28;20049;-79
2024/02/09 13:00:00;;;;;;;4.00;1.55;;;;;;;11.12;100.00;97515.75;10419849;28;20048;-83
2024/02/09 13:05:06;;;;;;;3.45;1.45;;;;;;;11.20;100.00;97520.97;10466140;28;20059;-81
2024/02/09 13:10:10;;;;;;;1.90;1.67;;;;;;;11.25;100.00;97533.81;10454286;28;20753;-80
2024/02/09 13:15:13;;;;;;;4.05;2.25;;;;;;;11.38;100.00;97531.22;10441425;28;20073;-81
2024/02/09 13:20:18;;;;;;;3.05;1.98;;;;;;;11.23;100.00;97533.19;10431551;28;20060;-80
2024/02/09 13:25:22;;;;;;;4.15;1.88;;;;;;;10.74;100.00;97548.31;10435030;28;20084;-80
2024/02/09 13:30:28;;;;;;;4.05;1.90;;;;;;;11.06;100.00;97544.22;10463520;28;20126;-79
2024/02/09 13:35:32;;;;;;;4.35;1.67;;;;;;;11.30;100.00;97538.59;10455640;28;21173;-80
2024/02/09 13:40:35;;;;;;;6.55;2.10;;;;;;;11.27;100.00;97543.34;10458064;28;20044;-80
2024/02/09 13:45:39;;;;;;;7.95;2.08;;;;;;;11.31;100.00;97541.09;10498655;28;20052;-82
2024/02/09 13:50:44;;;;;;;5.50;2.60;;;;;;;11.43;100.00;97534.09;10461056;28;20055;-82
2024/02/09 13:55:47;;;;;;;3.90;2.75;;;;;;;11.57;100.00;97551.13;10445108;28;20100;-82
2024/02/09 14:00:50;;;;;;;5.95;2.70;;;;;;;11.36;100.00;97529.75;10459954;28;20131;-81
2024/02/09 14:05:55;;;;;;;4.55;2.28;;;;;;;11.25;100.00;97531.97;10444839;28;20045;-80
2024/02/09 14:10:58;;;;;;;8.27;3.08;;;;;;;11.34;100.00;97534.50;10430734;28;20059;-81
2024/02/09 14:16:02;;;;;;;5.97;2.65;;;;;;;11.46;100.00;97538.25;10451952;28;20064;-80
2024/02/09 14:21:07;;;;;;;6.20;2.22;;;;;;;11.33;100.00;97543.59;10445556;28;20048;-79
2024/02/09 14:26:10;;;;;;;3.47;2.40;;;;;;;11.34;99.13;97543.38;10431037;28;20136;-79
2024/02/09 14:31:13;;;;;;;6.05;2.25;;;;;;;11.44;98.53;97535.78;10463708;28;20064;-79
2024/02/09 14:36:20;;;;;;;4.28;2.10;;;;;;;11.35;98.98;97534.28;10439347;28;20045;-80
2024/02/09 14:41:23;;;;;;;1.92;1.63;;;;;;;11.63;96.82;97538.78;10438106;28;20075;-81
2024/02/09 14:46:28;;;;;;;2.42;1.70;;;;;;;11.20;97.91;97558.59;10453432;28;20056;-80
2024/02/09 14:51:33;;;;;;;2.80;2.13;;;;;;;11.36;98.42;97540.50;10434610;28;20421;-81
2024/02/09 14:56:36;;;;;;;3.55;2.08;;;;;;;11.33;99.54;97533.66;10441315;28;20067;-81
2024/02/09 15:01:55;;;;;;;6.88;2.60;;;;;;;11.19;98.85;97548.88;10453424;28;20393;-82
2024/02/09 15:07:00;;;;;;;4.32;2.20;;;;;;;11.29;98.44;97545.81;10446739;28;20057;-81
2024/02/09 15:12:03;;;;;;;3.00;2.20;;;;;;;11.15;98.92;97542.22;10438864;28;20057;-80
2024/02/09 15:17:06;;;;;;;6.82;1.98;;;;;;;11.22;97.05;97540.41;10472406;28;20064;-80
2024/02/09 15:22:11;;;;;;;5.70;2.08;;;;;;;11.10;98.02;97546.50;10454125;28;20056;-81
2024/02/09 15:27:14;;;;;;;4.00;2.47;;;;;;;11.50;95.13;97550.28;10461278;28;20058;-82
2024/02/09 15:32:18;;;;;;;4.20;1.88;;;;;;;11.34;96.33;97558.66;10446644;28;20052;-82
2024/02/09 15:37:22;;;;;;;6.10;2.85;;;;;;;11.46;95.60;97546.31;10444424;28;20055;-80
2024/02/09 15:42:25;;;;;;;4.03;2.25;;;;;;;11.47;95.83;97550.69;10453207;28;21174;-80
2024/02/09 15:47:30;;;;;;;5.05;2.40;;;;;;;11.40;95.52;97550.63;10456866;28;20060;-82
2024/02/09 15:52:35;;;;;;;4.72;2.10;;;;;;;11.21;96.63;97551.34;10468780;28;20512;-80
2024/02/09 15:57:38;;;;;;;6.60;2.60;;;;;;;11.16;96.97;97541.22;10440993;28;20095;-81
2024/02/09 16:02:41;;;;;;;2.97;2.28;;;;;;;10.95;99.46;97549.31;10400368;28;20052;-83
2024/02/09 16:07:46;;;;;;;3.42;2.10;;;;;;;10.98;98.95;97547.03;10420011;28;20055;-78
2024/02/09 16:12:51;;;;;;;5.32;2.67;;;;;;;11.02;98.64;97540.25;10466717;28;20108;-82
2024/02/09 16:17:56;;;;;;;3.67;2.22;;;;;;;10.72;100.00;97538.78;10443165;28;20045;-81
2024/02/09 16:23:00;;;;;;;3.65;2.05;;;;;;;10.79;100.00;97542.34;10443263;28;20053;-81
2024/02/09 16:28:06;;;;;;;8.05;2.55;;;;;;;10.79;100.00;97534.31;10441638;28;20053;-82
2024/02/09 16:33:09;;;;;;;5.13;2.40;;;;;;;10.71;100.00;97537.97;10448293;28;20113;-81
2024/02/09 16:38:14;;;;;;;4.00;2.70;;;;;;;10.83;99.64;97540.94;10455845;28;20052;-78
2024/02/09 16:43:19;;;;;;;4.80;2.22;;;;;;;10.78;99.91;97543.41;10407285;28;20056;-81
2024/02/09 16:48:23;;;;;;;5.80;2.60;;;;;;;10.77;99.89;97547.09;10458374;28;20506;-80
2024/02/09 16:53:27;;;;;;;6.50;2.50;;;;;;;10.75;100.00;97555.34;10457975;28;20515;-80
2024/02/09 16:58:30;;;;;;;5.15;2.20;;;;;;;10.64;100.00;97569.31;10454654;28;20041;-82
2024/02/09 17:03:35;;;;;;;4.95;2.53;;;;;;;10.81;99.50;97564.47;10442066;28;20074;-83
2024/02/09 17:08:39;;;;;;;5.85;3.58;;;;;;;10.83;99.43;97559.72;10441359;28;20760;-80
2024/02/09 17:13:45;;;;;;;5.53;3.33;;;;;;;10.77;99.93;97564.03;10430073;28;20126;-81
2024/02/09 17:18:48;;;;;;;9.50;5.40;;;;;;;10.69;100.00;97569.53;10445313;28;20041;-79
2024/02/09 17:23:57;;;;;;;14.63;7.45;;;;;;;10.56;100.00;97572.94;10460454;28;20040;-81
2024/02/09 17:29:00;;;;;;;9.95;5.22;;;;;;;10.51;100.00;97569.19;10462561;28;20045;-81
2024/02/09 17:34:04;;;;;;;7.35;4.50;;;;;;;10.44;100.00;97573.63;10444499;28;20049;-79
2024/02/09 17:39:11;;;;;;;13.15;8.82;;;;;;;10.43;100.00;97588.91;10429481;28;20064;-82
2024/02/09 17:44:14;;;;;;;14.10;10.27;;;;;;;10.44;100.00;97579.00;10432358;28;20068;-82
2024/02/09 17:49:19;;;;;;;6.75;4.57;;;;;;;10.46;100.00;97593.06;10459990;28;20059;-82
2024/02/09 17:54:24;;;;;;;7.55;4.03;;;;;;;10.51;100.00;97586.09;10404358;28;20049;-81
2024/02/09 17:59:27;;;;;;;5.60;3.92;;;;;;;10.55;100.00;97592.72;10413334;28;20049;-81
2024/02/09 18:04:32;;;;;;;12.20;4.43;;;;;;;10.59;100.00;97594.03;10416063;28;20047;-81
2024/02/09 18:09:37;;;;;;;9.30;3.70;;;;;;;10.64;100.00;97598.81;10426958;28;20059;-80
2024/02/09 18:14:40;;;;;;;6.72;3.38;;;;;;;10.60;100.00;97601.03;10439245;28;20048;-79
2024/02/09 18:19:43;;;;;;;4.45;3.25;;;;;;;10.65;100.00;97594.28;10441718;28;20049;-82
2024/02/09 18:24:47;;;;;;;7.40;3.47;;;;;;;10.66;100.00;97598.63;10448747;28;20088;-81
2024/02/09 18:29:52;;;;;;;9.15;3.88;;;;;;;10.67;99.66;97605.63;10446629;28;20049;-80
2024/02/09 18:34:55;;;;;;;9.43;3.78;;;;;;;10.71;98.94;97604.25;10441075;28;20048;-80
2024/02/09 18:40:09;;;;;;;6.43;3.83;;;;;;;10.68;98.38;97597.41;10433110;28;20517;-79
2024/02/09 18:45:12;;;;;;;10.25;4.13;;;;;;;10.68;98.39;97602.78;10472783;28;20045;-81
2024/02/09 18:50:15;;;;;;;5.80;3.85;;;;;;;10.61;99.05;97596.50;10435636;28;20048;-84
2024/02/09 18:55:22;;;;;;;5.65;4.20;;;;;;;10.54;99.66;97606.38;10440588;28;20052;-81
2024/02/09 19:00:25;;;;;;;5.25;4.10;;;;;;;10.52;99.98;97594.97;10429910;28;20860;-81
2024/02/09 19:05:28;;;;;;;9.90;5.10;;;;;;;10.41;100.00;97593.63;10484959;28;20055;-79
2024/02/09 19:10:32;;;;;;;9.73;4.70;;;;;;;10.35;100.00;97597.91;10455373;28;20068;-79
2024/02/09 19:15:39;;;;;;;7.10;3.70;;;;;;;10.35;100.00;97597.09;10441437;28;20049;-81
2024/02/09 19:20:42;;;;;;;7.75;5.55;;;;;;;10.33;100.00;97605.31;10423054;28;20063;-80
2024/02/09 19:25:46;;;;;;;6.57;4.65;;;;;;;10.33;100.00;97591.06;10447104;28;20045;-79
2024/02/09 19:30:50;;;;;;;4.43;3.42;;;;;;;10.29;100.00;97603.22;10453650;28;21096;-80
2024/02/09 19:35:53;;;;;;;7.32;3.08;;;;;;;10.31;100.00;97595.78;10435566;28;20072;-80
2024/02/09 19:41:00;;;;;;;8.43;4.30;;;;;;;10.31;99.96;97607.38;10454013;28;20048;-81
2024/02/09 19:46:04;;;;;;;7.25;3.58;;;;;;;10.31;99.36;97609.22;10436945;28;20052;-80
2024/02/09 19:51:08;;;;;;;6.50;3.35;;;;;;;10.32;98.85;97605.53;10440529;28;21170;-81
2024/02/09 19:56:13;;;;;;;11.18;3.20;;;;;;;10.34;98.25;97603.50;10434534;28;20040;-79
2024/02/09 20:01:16;;;;;;;4.88;3.05;;;;;;;10.35;97.68;97607.81;10401146;28;20052;-79
2024/02/09 20:06:19;;;;;;;6.32;3.25;;;;;;;10.30;97.11;97607.56;10441898;28;20059;-81
2024/02/09 20:11:24;;;;;;;6.90;3.15;;;;;;;10.38;96.24;97618.16;10433713;28;22229;-79
2024/02/09 20:16:30;;;;;;;7.20;3.67;;;;;;;10.33;96.07;97623.28;10424128;28;20471;-79
2024/02/09 20:21:34;;;;;;;5.63;3.20;;;;;;;10.33;95.69;97610.69;10433629;28;20056;-81
2024/02/09 20:26:38;;;;;;;5.43;3.15;;;;;;;10.30;95.23;97611.06;10418552;28;20060;-81
2024/02/09 20:31:42;;;;;;;7.68;4.93;;;;;;;10.28;95.41;97615.78;10437943;28;20049;-80
2024/02/09 20:36:48;;;;;;;8.27;3.67;;;;;;;10.21;95.36;97609.53;10412626;28;20250;-81
2024/02/09 20:41:53;;;;;;;4.80;2.85;;;;;;;10.16;95.77;97617.31;10446648;28;20040;-80
2024/02/09 20:46:59;;;;;;;6.70;3.30;;;;;;;10.08;96.12;97622.78;10445467;28;20083;-81
2024/02/09 20:52:06;;;;;;;7.40;3.08;;;;;;;10.01;96.57;97616.50;10443303;28;20056;-79
2024/02/09 20:57:10;;;;;;;6.05;3.38;;;;;;;9.96;96.87;97627.81;10434014;28;20041;-80
2024/02/09 21:02:14;;;;;;;6.50;4.13;;;;;;;9.89;96.92;97619.66;10444851;28;20074;-80
2024/02/09 21:07:17;;;;;;;6.57;3.75;;;;;;;9.81;97.67;97618.91;10453597;28;20090;-80
2024/02/09 21:12:24;;;;;;;6.15;3.92;;;;;;;9.68;98.92;97631.13;10473045;28;20089;-79
2024/02/09 21:17:27;;;;;;;8.05;4.28;;;;;;;9.62;99.93;97617.63;10471871;28;20041;-79
2024/02/09 21:22:31;;;;;;;8.23;5.07;;;;;;;9.51;100.00;97616.25;10469429;28;20158;-79
2024/02/09 21:27:39;;;;;;;8.73;4.68;;;;;;;9.49;100.00;97624.47;10449779;28;20056;-78
2024/02/09 21:32:42;;;;;;;9.07;4.68;;;;;;;9.46;100.00;97624.84;10466298;28;20362;-79
2024/02/09 21:37:46;;;;;;;11.35;6.18;;;;;;;9.44;100.00;97620.69;10449099;28;20448;-80
2024/02/09 21:42:50;;;;;;;7.40;5.20;;;;;;;9.43;100.00;97621.69;10434158;28;20056;-80
2024/02/09 21:47:53;;;;;;;14.45;8.27;;;;;;;9.40;100.00;97622.06;10438372;28;20044;-80
2024/02/09 21:52:58;;;;;;;12.02;6.57;;;;;;;9.42;100.00;97625.41;10437287;28;20056;-80
2024/02/09 21:58:05;;;;;;;12.82;5.50;;;;;;;9.44;100.00;97623.38;10430026;28;20112;-79
2024/02/09 22:03:08;;;;;;;10.40;5.90;;;;;;;9.49;100.00;97621.81;10437921;28;20099;-81
2024/02/09 22:08:11;;;;;;;15.43;5.95;;;;;;;9.51;100.00;97619.75;10451893;28;20052;-79
2024/02/09 22:13:17;;;;;;;15.35;6.72;;;;;;;9.55;100.00;97617.53;10435386;28;20052;-80
2024/02/09 22:18:21;;;;;;;10.35;6.03;;;;;;;9.65;100.00;97627.97;10434234;28;20527;-80
2024/02/09 22:23:24;;;;;;;11.82;6.20;;;;;;;9.71;100.00;97625.41;10454588;28;20052;-80
2024/02/09 22:28:28;;;;;;;11.18;5.68;;;;;;;9.68;100.00;97632.97;10426059;28;20508;-78
2024/02/09 22:33:31;;;;;;;12.20;6.72;;;;;;;9.67;100.00;97626.78;10395465;28;20131;-80
2024/02/09 22:38:37;;;;;;;22.10;9.57;;;;;;;9.70;100.00;97630.94;10441111;28;20052;-79
2024/02/09 22:43:41;;;;;;;14.93;7.53;;;;;;;9.70;100.00;97623.72;10428741;28;20049;-80
2024/02/09 22:48:44;;;;;;;13.30;6.40;;;;;;;9.66;100.00;97624.28;10436129;28;20048;-82
2024/02/09 22:53:50;;;;;;;11.43;6.55;;;;;;;9.61;100.00;97619.47;10472406;28;20044;-82
2024/02/09 22:58:56;;;;;;;11.48;6.05;;;;;;;9.66;100.00;97621.63;10478920;28;20052;-81
2024/02/09 23:04:00;;;;;;;14.65;7.03;;;;;;;9.72;100.00;97626.22;10437931;28;20055;-82
2024/02/09 23:09:04;;;;;;;13.63;7.72;;;;;;;9.70;100.00;97621.03;10444503;28;20059;-80
2024/02/09 23:14:09;;;;;;;14.23;6.75;;;;;;;9.78;100.00;97624.66;10445783;28;20554;-81
2024/02/09 23:19:15;;;;;;;12.63;7.10;;;;;;;9.81;100.00;97629.63;10437670;28;20044;-80
2024/02/09 23:24:25;;;;;;;10.38;6.95;;;;;;;9.83;100.00;97631.09;10448597;28;20055;-80
2024/02/09 23:29:30;;;;;;;15.70;6.78;;;;;;;9.80;100.00;97636.03;10453361;28;20412;-81
2024/02/09 23:34:34;;;;;;;11.98;7.18;;;;;;;9.76;100.00;97642.75;10453695;28;20124;-80
2024/02/09 23:39:38;;;;;;;13.45;7.70;;;;;;;9.69;100.00;97642.69;10439011;28;20053;-81
2024/02/09 23:44:42;;;;;;;16.02;7.22;;;;;;;9.63;100.00;97640.75;10441206;28;20048;-81
2024/02/09 23:49:45;;;;;;;9.77;6.22;;;;;;;9.60;100.00;97651.81;10412747;28;20047;-80
2024/02/09 23:54:50;;;;;;;11.43;7.85;;;;;;;9.56;100.00;97637.97;10412530;28;20049;-81
2024/02/09 23:59:54;;;;;;;12.20;7.03;;;;;;;9.55;100.00;97632.81;10418010;28;20048;-82
